createdAt,value
2022-10-02T00:00:00.362Z,100344.66
2022-10-02T00:02:49.801Z,100363.06
2022-10-02T00:05:29.109Z,100360.94
2022-10-02T00:08:20.760Z,100365.22
2022-10-02T00:10:57.284Z,100372.88
2022-10-02T00:13:31.020Z,100371.75
2022-10-02T00:15:57.961Z,100374.38
2022-10-02T00:18:34.361Z,100382.13
2022-10-02T00:21:09.693Z,100377.56
2022-10-02T00:23:41.554Z,100385.53
2022-10-02T00:26:18.855Z,100380.97
2022-10-02T00:28:54.618Z,100389.84
2022-10-02T00:31:28.319Z,100384.59
2022-10-02T00:34:21.681Z,100370.50
2022-10-02T00:37:35.505Z,100377.50
2022-10-02T00:40:38.530Z,100373.72
2022-10-02T00:43:24.569Z,100372.72
2022-10-02T00:46:20.547Z,100378.78
2022-10-02T00:48:58.984Z,100397.97
2022-10-02T00:51:48.591Z,100386.03
2022-10-02T00:54:24.483Z,100388.63
2022-10-02T00:57:05.413Z,100385.88
2022-10-02T00:59:38.509Z,100374.53
2022-10-02T01:02:12.318Z,100367.38
2022-10-02T01:04:40.587Z,100380.69
2022-10-02T01:07:11.303Z,100374.25
2022-10-02T01:09:39.808Z,100378.03
2022-10-02T01:12:07.109Z,100372.38
2022-10-02T01:14:40.027Z,100371.34
2022-10-02T01:17:19.240Z,100376.41
2022-10-02T01:19:45.820Z,100382.56
2022-10-02T01:22:32.169Z,100381.09
2022-10-02T01:25:04.106Z,100384.56
2022-10-02T01:27:32.384Z,100391.16
2022-10-02T01:30:07.523Z,100395.00
2022-10-02T01:32:37.902Z,100398.13
2022-10-02T01:35:05.078Z,100391.59
2022-10-02T01:37:35.144Z,100396.75
2022-10-02T01:40:11.582Z,100393.09
2022-10-02T01:42:40.075Z,100380.69
2022-10-02T01:45:08.949Z,100373.47
2022-10-02T01:47:59.242Z,100379.81
2022-10-02T01:50:47.587Z,100381.31
2022-10-02T01:53:31.181Z,100379.09
2022-10-02T01:56:05.018Z,100386.69
2022-10-02T01:59:00.721Z,100388.91
2022-10-02T02:02:00.550Z,100395.47
2022-10-02T02:04:35.427Z,100397.16
2022-10-02T02:07:16.182Z,100404.31
2022-10-02T02:10:00.332Z,100393.88
2022-10-02T02:12:45.488Z,100387.03
2022-10-02T02:15:22.237Z,100386.22
2022-10-02T02:18:00.994Z,100393.31
2022-10-02T02:20:38.751Z,100390.47
2022-10-02T02:23:10.584Z,100390.31
2022-10-02T02:25:40.537Z,100374.16
2022-10-02T02:28:12.357Z,100380.84
2022-10-02T02:30:42.011Z,100370.31
2022-10-02T02:33:17.049Z,100371.19
2022-10-02T02:35:48.152Z,100375.59
2022-10-02T02:38:28.273Z,100379.19
2022-10-02T02:40:59.540Z,100385.66
2022-10-02T02:43:44.358Z,100385.66
2022-10-02T02:46:20.595Z,100386.53
2022-10-02T02:48:52.474Z,100384.00
2022-10-02T02:51:23.490Z,100393.09
2022-10-02T02:53:59.192Z,100401.34
2022-10-02T02:56:29.924Z,100404.16
2022-10-02T02:59:10.301Z,100395.34
2022-10-02T03:01:37.073Z,100396.47
2022-10-02T03:04:03.876Z,100398.69
2022-10-02T03:06:37.626Z,100392.28
2022-10-02T03:09:07.833Z,100394.84
2022-10-02T03:11:52.469Z,100400.38
2022-10-02T03:14:49.279Z,100396.56
2022-10-02T03:17:36.857Z,100394.81
2022-10-02T03:20:21.391Z,100406.81
2022-10-02T03:23:02.977Z,100399.97
2022-10-02T03:25:31.791Z,100395.97
2022-10-02T03:28:07.114Z,100398.34
2022-10-02T03:30:35.575Z,100398.09
2022-10-02T03:33:03.726Z,100400.69
2022-10-02T03:35:31.766Z,100402.34
2022-10-02T03:38:06.310Z,100405.84
2022-10-02T03:40:32.716Z,100412.69
2022-10-02T03:42:59.194Z,100395.59
2022-10-02T03:45:49.407Z,100400.16
2022-10-02T03:48:13.292Z,100399.91
2022-10-02T03:50:39.678Z,100397.34
2022-10-02T03:53:17.713Z,100402.94
2022-10-02T03:55:48.283Z,100402.03
2022-10-02T03:58:17.688Z,100407.41
2022-10-02T04:00:55.274Z,100405.81
2022-10-02T04:03:29.963Z,100409.81
2022-10-02T04:06:01.992Z,100404.81
2022-10-02T04:08:34.479Z,100403.56
2022-10-02T04:11:16.823Z,100396.94
2022-10-02T04:14:03.670Z,100402.03
2022-10-02T04:16:35.916Z,100406.69
2022-10-02T04:19:18.961Z,100400.41
2022-10-02T04:21:58.242Z,100403.88
2022-10-02T04:24:38.378Z,100397.63
2022-10-02T04:27:36.771Z,100398.59
2022-10-02T04:30:15.463Z,100404.88
2022-10-02T04:32:41.846Z,100403.00
2022-10-02T04:35:20.443Z,100420.00
2022-10-02T04:38:15.335Z,100405.75
2022-10-02T04:41:19.151Z,100410.50
2022-10-02T04:44:24.679Z,100404.44
2022-10-02T04:47:19.422Z,100410.13
2022-10-02T04:49:59.652Z,100412.84
2022-10-02T04:52:45.800Z,100420.47
2022-10-02T04:55:36.651Z,100410.38
2022-10-02T04:58:24.549Z,100411.03
2022-10-02T05:01:25.956Z,100410.38
2022-10-02T05:04:20.293Z,100403.66
2022-10-02T05:07:07.762Z,100405.16
2022-10-02T05:10:13.478Z,100401.75
2022-10-02T05:13:12.939Z,100402.69
2022-10-02T05:15:45.506Z,100410.34
2022-10-02T05:18:19.652Z,100398.78
2022-10-02T05:21:08.933Z,100405.53
2022-10-02T05:23:57.069Z,100399.69
2022-10-02T05:27:07.667Z,100397.34
2022-10-02T05:29:47.857Z,100400.03
2022-10-02T05:32:31.899Z,100405.94
2022-10-02T05:35:15.762Z,100411.28
2022-10-02T05:37:57.361Z,100409.41
2022-10-02T05:40:29.951Z,100412.31
2022-10-02T05:43:09.555Z,100423.81
2022-10-02T05:46:11.236Z,100420.03
2022-10-02T05:48:49.884Z,100414.84
2022-10-02T05:51:31.586Z,100414.84
2022-10-02T05:54:04.533Z,100413.13
2022-10-02T05:57:02.294Z,100425.31
2022-10-02T05:59:50.538Z,100424.69
2022-10-02T06:02:38.886Z,100424.88
2022-10-02T06:05:16.396Z,100426.94
2022-10-02T06:07:47.223Z,100421.03
2022-10-02T06:10:23.015Z,100427.44
2022-10-02T06:13:11.337Z,100425.81
2022-10-02T06:15:51.832Z,100424.66
2022-10-02T06:18:23.625Z,100427.63
2022-10-02T06:20:55.950Z,100423.38
2022-10-02T06:23:25.400Z,100418.84
2022-10-02T06:25:56.183Z,100424.09
2022-10-02T06:28:51.601Z,100426.44
2022-10-02T06:31:54.241Z,100423.75
2022-10-02T06:34:20.779Z,100419.34
2022-10-02T06:37:07.701Z,100430.03
2022-10-02T06:39:52.649Z,100435.44
2022-10-02T06:42:33.209Z,100435.69
2022-10-02T06:45:08.715Z,100435.88
2022-10-02T06:47:57.866Z,100436.88
2022-10-02T06:50:43.430Z,100434.22
2022-10-02T06:53:32.668Z,100438.25
2022-10-02T06:56:05.099Z,100445.94
2022-10-02T06:58:37.499Z,100450.56
2022-10-02T07:01:24.509Z,100444.22
2022-10-02T07:04:21.367Z,100444.13
2022-10-02T07:07:06.579Z,100452.56
2022-10-02T07:09:51.581Z,100445.09
2022-10-02T07:12:36.167Z,100446.28
2022-10-02T07:15:28.398Z,100454.50
2022-10-02T07:17:57.720Z,100450.81
2022-10-02T07:20:45.765Z,100440.84
2022-10-02T07:23:26.481Z,100450.16
2022-10-02T07:26:20.792Z,100450.50
2022-10-02T07:29:07.362Z,100462.00
2022-10-02T07:31:46.074Z,100462.38
2022-10-02T07:34:39.913Z,100470.63
2022-10-02T07:37:18.220Z,100465.16
2022-10-02T07:39:50.343Z,100462.56
2022-10-02T07:42:28.480Z,100460.44
2022-10-02T07:45:20.091Z,100464.75
2022-10-02T07:47:52.537Z,100456.97
2022-10-02T07:50:27.377Z,100456.53
2022-10-02T07:53:01.912Z,100453.28
2022-10-02T07:55:28.585Z,100458.50
2022-10-02T07:58:19.658Z,100464.59
2022-10-02T08:00:51.029Z,100465.75
2022-10-02T08:03:24.220Z,100457.91
2022-10-02T08:05:54.757Z,100458.97
2022-10-02T08:08:32.302Z,100454.53
2022-10-02T08:11:08.233Z,100467.34
2022-10-02T08:13:41.148Z,100463.09
2022-10-02T08:16:09.457Z,100463.19
2022-10-02T08:18:48.919Z,100456.59
2022-10-02T08:21:18.729Z,100450.38
2022-10-02T08:24:03.993Z,100454.06
2022-10-02T08:26:47.429Z,100452.09
2022-10-02T08:29:24.755Z,100458.06
2022-10-02T08:31:53.128Z,100455.94
2022-10-02T08:34:22.018Z,100454.06
2022-10-02T08:37:01.876Z,100467.72
2022-10-02T08:39:44.105Z,100475.03
2022-10-02T08:42:32.096Z,100466.34
2022-10-02T08:45:26.557Z,100479.38
2022-10-02T08:48:18.476Z,100466.72
2022-10-02T08:51:24.322Z,100477.38
2022-10-02T08:53:50.627Z,100476.91
2022-10-02T08:56:31.656Z,100480.53
2022-10-02T08:59:31.025Z,100476.69
2022-10-02T09:02:27.461Z,100473.06
2022-10-02T09:05:26.811Z,100480.16
2022-10-02T09:08:17.402Z,100467.56
2022-10-02T09:11:08.684Z,100453.25
2022-10-02T09:13:40.137Z,100465.31
2022-10-02T09:16:14.802Z,100460.47
2022-10-02T09:18:47.001Z,100473.75
2022-10-02T09:21:18.779Z,100469.50
2022-10-02T09:24:11.231Z,100477.97
2022-10-02T09:27:00.599Z,100474.88
2022-10-02T09:30:11.928Z,100470.22
2022-10-02T09:33:28.662Z,100474.63
2022-10-02T09:36:34.039Z,100471.94
2022-10-02T09:39:18.828Z,100472.00
2022-10-02T09:42:14.823Z,100479.28
2022-10-02T09:45:15.530Z,100480.38
2022-10-02T09:48:12.839Z,100475.66
2022-10-02T09:50:49.814Z,100461.06
2022-10-02T09:53:38.026Z,100467.28
2022-10-02T09:56:20.419Z,100460.28
2022-10-02T09:59:22.454Z,100461.69
2022-10-02T10:02:07.935Z,100452.78
2022-10-02T10:05:09.925Z,100447.03
2022-10-02T10:07:53.146Z,100433.38
2022-10-02T10:10:45.277Z,100444.94
2022-10-02T10:13:21.413Z,100464.78
2022-10-02T10:16:01.263Z,100473.53
2022-10-02T10:18:42.239Z,100478.34
2022-10-02T10:21:32.753Z,100484.50
2022-10-02T10:24:17.869Z,100476.81
2022-10-02T10:27:21.795Z,100482.56
2022-10-02T10:30:23.722Z,100482.69
2022-10-02T10:33:30.052Z,100492.81
2022-10-02T10:36:36.531Z,100487.84
2022-10-02T10:39:33.160Z,100487.91
2022-10-02T10:42:18.867Z,100490.59
2022-10-02T10:45:00.522Z,100490.28
2022-10-02T10:47:38.574Z,100498.09
2022-10-02T10:50:42.466Z,100496.59
2022-10-02T10:53:24.011Z,100503.06
2022-10-02T10:56:02.487Z,100498.78
2022-10-02T10:58:53.918Z,100496.16
2022-10-02T11:01:26.566Z,100496.09
2022-10-02T11:04:26.496Z,100497.09
2022-10-02T11:07:10.621Z,100496.59
2022-10-02T11:09:55.633Z,100499.41
2022-10-02T11:12:32.974Z,100504.34
2022-10-02T11:15:30.171Z,100509.22
2022-10-02T11:18:31.379Z,100512.63
2022-10-02T11:21:18.699Z,100505.22
2022-10-02T11:24:13.574Z,100501.41
2022-10-02T11:26:45.988Z,100505.06
2022-10-02T11:29:34.652Z,100510.94
2022-10-02T11:32:28.264Z,100502.19
2022-10-02T11:34:54.540Z,100490.06
2022-10-02T11:37:42.395Z,100495.50
2022-10-02T11:40:34.712Z,100496.34
2022-10-02T11:43:13.948Z,100492.50
2022-10-02T11:46:05.010Z,100506.16
2022-10-02T11:48:47.981Z,100507.25
2022-10-02T11:51:36.507Z,100517.47
2022-10-02T11:54:21.999Z,100513.47
2022-10-02T11:57:21.378Z,100503.13
2022-10-02T12:00:16.038Z,100512.84
2022-10-02T12:03:01.319Z,100502.00
2022-10-02T12:05:46.316Z,100514.06
2022-10-02T12:08:18.941Z,100495.81
2022-10-02T12:11:09.083Z,100499.84
2022-10-02T12:13:48.155Z,100506.31
2022-10-02T12:16:32.620Z,100506.38
2022-10-02T12:19:11.412Z,100489.66
2022-10-02T12:22:18.395Z,100499.22
2022-10-02T12:25:22.236Z,100491.81
2022-10-02T12:28:05.614Z,100495.53
2022-10-02T12:30:54.961Z,100504.06
2022-10-02T12:33:45.842Z,100490.00
2022-10-02T12:36:26.313Z,100502.25
2022-10-02T12:39:05.704Z,100490.97
2022-10-02T12:41:35.512Z,100498.22
2022-10-02T12:44:36.160Z,100506.19
2022-10-02T12:47:29.151Z,100491.81
2022-10-02T12:50:39.427Z,100495.81
2022-10-02T12:53:05.691Z,100491.97
2022-10-02T12:55:50.568Z,100497.03
2022-10-02T12:58:35.321Z,100498.53
2022-10-02T13:01:30.722Z,100504.06
2022-10-02T13:04:13.108Z,100493.53
2022-10-02T13:07:08.052Z,100491.28
2022-10-02T13:09:53.388Z,100495.25
2022-10-02T13:12:30.542Z,100493.03
2022-10-02T13:15:17.456Z,100495.06
2022-10-02T13:17:51.113Z,100504.19
2022-10-02T13:20:45.254Z,100500.22
2022-10-02T13:23:50.577Z,100496.22
2022-10-02T13:26:23.059Z,100492.50
2022-10-02T13:29:34.529Z,100486.25
2022-10-02T13:32:22.611Z,100492.16
2022-10-02T13:34:55.069Z,100490.69
2022-10-02T13:37:45.022Z,100500.97
2022-10-02T13:40:19.904Z,100494.31
2022-10-02T13:43:05.951Z,100496.66
2022-10-02T13:45:49.811Z,100491.81
2022-10-02T13:48:19.313Z,100500.03
2022-10-02T13:51:07.860Z,100491.34
2022-10-02T13:54:11.780Z,100481.97
2022-10-02T13:57:02.688Z,100488.75
2022-10-02T13:59:41.318Z,100491.34
2022-10-02T14:02:39.579Z,100493.16
2022-10-02T14:05:10.055Z,100500.88
2022-10-02T14:07:48.106Z,100492.31
2022-10-02T14:10:38.406Z,100495.38
2022-10-02T14:13:20.021Z,100497.28
2022-10-02T14:16:03.234Z,100502.09
2022-10-02T14:18:45.535Z,100491.59
2022-10-02T14:21:17.301Z,100500.44
2022-10-02T14:24:02.127Z,100499.09
2022-10-02T14:26:53.131Z,100515.38
2022-10-02T14:29:35.022Z,100519.34
2022-10-02T14:32:20.965Z,100525.06
2022-10-02T14:35:03.024Z,100531.13
2022-10-02T14:37:36.448Z,100518.22
2022-10-02T14:40:12.611Z,100521.13
2022-10-02T14:42:42.289Z,100528.44
2022-10-02T14:45:46.366Z,100532.19
2022-10-02T14:48:56.414Z,100537.63
2022-10-02T14:51:40.814Z,100537.47
2022-10-02T14:54:19.234Z,100532.09
2022-10-02T14:56:45.587Z,100539.00
2022-10-02T14:59:31.443Z,100534.00
2022-10-02T15:02:20.548Z,100540.06
2022-10-02T15:05:07.437Z,100543.19
2022-10-02T15:07:36.889Z,100544.53
2022-10-02T15:10:18.711Z,100542.97
2022-10-02T15:12:58.434Z,100551.31
2022-10-02T15:15:37.383Z,100544.75
2022-10-02T15:18:41.878Z,100540.03
2022-10-02T15:21:46.863Z,100555.72
2022-10-02T15:24:43.794Z,100550.69
2022-10-02T15:27:23.838Z,100554.38
2022-10-02T15:29:58.954Z,100541.84
2022-10-02T15:32:39.780Z,100547.91
2022-10-02T15:35:36.111Z,100543.28
2022-10-02T15:38:25.563Z,100551.91
2022-10-02T15:41:01.844Z,100548.56
2022-10-02T15:43:37.312Z,100553.84
2022-10-02T15:46:45.840Z,100561.03
2022-10-02T15:49:37.512Z,100564.50
2022-10-02T15:52:14.877Z,100561.75
2022-10-02T15:54:50.180Z,100563.13
2022-10-02T15:58:15.284Z,100563.34
2022-10-02T16:01:05.951Z,100572.84
2022-10-02T16:03:50.768Z,100573.19
2022-10-02T16:06:32.999Z,100570.16
2022-10-02T16:09:43.031Z,100555.91
2022-10-02T16:12:31.092Z,100563.56
2022-10-02T16:15:00.499Z,100575.94
2022-10-02T16:17:47.954Z,100578.13
2022-10-02T16:20:27.091Z,100580.44
2022-10-02T16:23:07.345Z,100583.97
2022-10-02T16:25:58.277Z,100586.28
2022-10-02T16:28:46.836Z,100577.44
2022-10-02T16:31:31.827Z,100590.91
2022-10-02T16:34:16.715Z,100591.47
2022-10-02T16:36:57.283Z,100603.28
2022-10-02T16:39:35.928Z,100597.75
2022-10-02T16:42:20.309Z,100604.69
2022-10-02T16:45:00.052Z,100603.69
2022-10-02T16:47:35.195Z,100605.56
2022-10-02T16:50:24.391Z,100598.25
2022-10-02T16:52:54.134Z,100603.78
2022-10-02T16:55:33.617Z,100604.56
2022-10-02T16:58:21.904Z,100608.78
2022-10-02T17:00:48.208Z,100609.25
2022-10-02T17:03:30.178Z,100614.75
2022-10-02T17:06:07.079Z,100611.25
2022-10-02T17:08:44.160Z,100619.34
2022-10-02T17:11:19.556Z,100631.41
2022-10-02T17:14:07.859Z,100641.06
2022-10-02T17:16:52.552Z,100650.31
2022-10-02T17:19:35.167Z,100646.25
2022-10-02T17:22:08.872Z,100654.69
2022-10-02T17:24:42.949Z,100658.63
2022-10-02T17:27:09.279Z,100648.56
2022-10-02T17:30:12.423Z,100655.34
2022-10-02T17:32:52.778Z,100665.56
2022-10-02T17:35:43.805Z,100671.47
2022-10-02T17:38:24.262Z,100680.69
2022-10-02T17:40:59.202Z,100694.75
2022-10-02T17:44:02.724Z,100701.16
2022-10-02T17:46:35.382Z,100711.28
2022-10-02T17:49:01.896Z,100714.88
2022-10-02T17:51:53.656Z,100720.75
2022-10-02T17:54:38.631Z,100717.88
2022-10-02T17:57:07.731Z,100734.09
2022-10-02T17:59:40.611Z,100724.44
2022-10-02T18:02:09.964Z,100730.78
2022-10-02T18:05:07.458Z,100729.53
2022-10-02T18:08:01.166Z,100744.41
2022-10-02T18:10:53.330Z,100752.94
2022-10-02T18:13:25.953Z,100751.63
2022-10-02T18:16:13.556Z,100758.53
2022-10-02T18:19:09.731Z,100766.88
2022-10-02T18:21:56.854Z,100770.13
2022-10-02T18:24:39.596Z,100772.34
2022-10-02T18:27:28.144Z,100780.06
2022-10-02T18:30:11.768Z,100775.88
2022-10-02T18:33:00.262Z,100783.59
2022-10-02T18:35:34.918Z,100783.28
2022-10-02T18:38:39.083Z,100792.09
2022-10-02T18:41:32.626Z,100792.00
2022-10-02T18:44:26.318Z,100802.72
2022-10-02T18:47:37.603Z,100807.44
2022-10-02T18:50:32.335Z,100805.66
2022-10-02T18:53:17.372Z,100817.22
2022-10-02T18:56:07.509Z,100814.47
2022-10-02T18:58:52.541Z,100819.22
2022-10-02T19:01:29.627Z,100799.22
2022-10-02T19:04:10.792Z,100821.63
2022-10-02T19:06:47.385Z,100819.00
2022-10-02T19:09:20.928Z,100819.00
2022-10-02T19:11:57.490Z,100824.19
2022-10-02T19:14:36.787Z,100830.56
2022-10-02T19:17:37.270Z,100835.28
2022-10-02T19:20:35.550Z,100835.25
2022-10-02T19:23:06.040Z,100845.06
2022-10-02T19:25:33.390Z,100852.97
2022-10-02T19:28:02.648Z,100848.56
2022-10-02T19:30:32.298Z,100852.28
2022-10-02T19:33:03.954Z,100859.03
2022-10-02T19:35:38.576Z,100863.53
2022-10-02T19:38:21.991Z,100866.28
2022-10-02T19:40:52.988Z,100876.84
2022-10-02T19:43:28.915Z,100880.38
2022-10-02T19:45:58.944Z,100882.41
2022-10-02T19:48:27.836Z,100892.97
2022-10-02T19:51:07.297Z,100891.88
2022-10-02T19:53:40.883Z,100899.81
2022-10-02T19:56:12.926Z,100901.03
2022-10-02T19:58:46.361Z,100908.88
2022-10-02T20:01:20.034Z,100904.50
2022-10-02T20:03:55.018Z,100907.47
2022-10-02T20:06:24.566Z,100897.00
2022-10-02T20:09:01.043Z,100908.19
2022-10-02T20:11:39.233Z,100912.06
2022-10-02T20:14:14.905Z,100912.94
2022-10-02T20:17:00.099Z,100917.34
2022-10-02T20:19:34.209Z,100924.72
2022-10-02T20:22:10.567Z,100916.50
2022-10-02T20:24:45.458Z,100918.41
2022-10-02T20:27:25.866Z,100915.94
2022-10-02T20:29:59.415Z,100916.72
2022-10-02T20:32:34.602Z,100932.81
2022-10-02T20:35:10.863Z,100937.28
2022-10-02T20:37:40.639Z,100939.81
2022-10-02T20:40:18.556Z,100937.16
2022-10-02T20:43:04.228Z,100949.69
2022-10-02T20:45:42.510Z,100947.91
2022-10-02T20:48:49.269Z,100941.47
2022-10-02T20:51:48.250Z,100954.88
2022-10-02T20:55:00.755Z,100956.56
2022-10-02T20:57:49.554Z,100968.44
2022-10-02T21:00:28.687Z,100973.19
2022-10-02T21:03:31.321Z,100977.38
2022-10-02T21:06:12.080Z,100978.25
2022-10-02T21:08:59.335Z,100972.00
2022-10-02T21:11:28.680Z,100978.22
2022-10-02T21:14:21.756Z,100984.59
2022-10-02T21:17:10.810Z,100984.53
2022-10-02T21:19:46.295Z,100987.00
2022-10-02T21:22:34.593Z,100989.84
2022-10-02T21:25:26.256Z,100991.53
2022-10-02T21:28:24.100Z,100996.78
2022-10-02T21:31:13.908Z,101001.22
2022-10-02T21:33:58.689Z,101002.00
2022-10-02T21:36:33.600Z,101003.88
2022-10-02T21:39:43.189Z,101004.63
2022-10-02T21:42:17.523Z,101002.97
2022-10-02T21:44:49.861Z,101012.81
2022-10-02T21:47:41.019Z,101015.78
2022-10-02T21:50:41.433Z,101018.63
2022-10-02T21:53:09.544Z,101019.72
2022-10-02T21:55:54.760Z,101028.53
2022-10-02T21:58:48.918Z,101031.78
2022-10-02T22:02:03.804Z,101038.06
2022-10-02T22:04:37.866Z,101035.50
2022-10-02T22:07:22.488Z,101032.25
2022-10-02T22:10:02.129Z,101039.31
2022-10-02T22:12:47.023Z,101046.38
2022-10-02T22:15:24.542Z,101041.97
2022-10-02T22:18:02.679Z,101045.59
2022-10-02T22:21:06.587Z,101047.16
2022-10-02T22:23:42.145Z,101050.78
2022-10-02T22:26:28.995Z,101045.47
2022-10-02T22:29:29.629Z,101057.13
2022-10-02T22:32:52.646Z,101056.03
2022-10-02T22:35:27.353Z,101060.25
2022-10-02T22:38:09.116Z,101069.09
2022-10-02T22:40:46.639Z,101074.22
2022-10-02T22:43:34.644Z,101075.19
2022-10-02T22:46:43.997Z,101080.34
2022-10-02T22:49:35.020Z,101086.75
2022-10-02T22:52:20.021Z,101091.19
2022-10-02T22:55:04.659Z,101089.25
2022-10-02T22:57:42.074Z,101086.53
2022-10-02T23:00:15.449Z,101100.00
2022-10-02T23:03:03.796Z,101097.06
2022-10-02T23:05:43.643Z,101098.84
2022-10-02T23:08:31.085Z,101090.91
2022-10-02T23:11:26.588Z,101096.25
2022-10-02T23:14:14.400Z,101097.34
2022-10-02T23:16:48.059Z,101095.47
2022-10-02T23:19:33.953Z,101100.88
2022-10-02T23:22:07.146Z,101106.03
2022-10-02T23:25:23.482Z,101108.78
2022-10-02T23:27:58.699Z,101108.06
2022-10-02T23:30:25.453Z,101112.22
2022-10-02T23:33:04.855Z,101121.94
2022-10-02T23:35:46.182Z,101126.28
2022-10-02T23:38:23.691Z,101125.41
2022-10-02T23:41:26.207Z,101123.53
2022-10-02T23:44:28.918Z,101126.13
2022-10-02T23:46:55.705Z,101127.00
2022-10-02T23:49:31.084Z,101127.88
2022-10-02T23:52:42.447Z,101137.50
2022-10-02T23:55:52.438Z,101127.00
2022-10-02T23:58:35.878Z,101128.69
